sensor_id;sensor_type;location;lat;lon;timestamp;P1;durP1;ratioP1;P2;durP2;ratioP2
4650;SDS011;2338;49.602;8.722;2023-07-20T00:00:39;5.80;;;2.40;;
4650;SDS011;2338;49.602;8.722;2023-07-20T00:03:24;3.27;;;1.80;;
4650;SDS011;2338;49.602;8.722;2023-07-20T00:06:11;4.97;;;2.57;;
4650;SDS011;2338;49.602;8.722;2023-07-20T00:08:56;5.53;;;2.13;;
4650;SDS011;2338;49.602;8.722;2023-07-20T00:11:48;7.30;;;2.60;;
4650;SDS011;2338;49.602;8.722;2023-07-20T00:14:34;12.63;;;2.17;;
4650;SDS011;2338;49.602;8.722;2023-07-20T00:17:19;4.93;;;2.10;;
4650;SDS011;2338;49.602;8.722;2023-07-20T00:20:05;5.77;;;2.13;;
4650;SDS011;2338;49.602;8.722;2023-07-20T00:22:54;5.67;;;2.43;;
4650;SDS011;2338;49.602;8.722;2023-07-20T00:25:41;2.70;;;1.90;;
4650;SDS011;2338;49.602;8.722;2023-07-20T00:28:26;5.30;;;2.30;;
4650;SDS011;2338;49.602;8.722;2023-07-20T00:31:12;5.67;;;1.90;;
4650;SDS011;2338;49.602;8.722;2023-07-20T00:33:58;6.53;;;2.50;;
4650;SDS011;2338;49.602;8.722;2023-07-20T00:36:43;4.20;;;1.77;;
4650;SDS011;2338;49.602;8.722;2023-07-20T00:39:30;5.67;;;2.00;;
4650;SDS011;2338;49.602;8.722;2023-07-20T00:42:15;7.13;;;2.73;;
4650;SDS011;2338;49.602;8.722;2023-07-20T00:45:01;7.00;;;2.53;;
4650;SDS011;2338;49.602;8.722;2023-07-20T00:47:47;6.80;;;2.30;;
4650;SDS011;2338;49.602;8.722;2023-07-20T00:50:33;5.40;;;2.00;;
4650;SDS011;2338;49.602;8.722;2023-07-20T00:53:19;8.23;;;2.37;;
4650;SDS011;2338;49.602;8.722;2023-07-20T00:56:05;4.90;;;2.60;;
4650;SDS011;2338;49.602;8.722;2023-07-20T00:58:52;4.87;;;2.30;;
4650;SDS011;2338;49.602;8.722;2023-07-20T01:01:37;5.60;;;2.43;;
4650;SDS011;2338;49.602;8.722;2023-07-20T01:04:23;5.93;;;2.30;;
4650;SDS011;2338;49.602;8.722;2023-07-20T01:07:10;6.93;;;2.47;;
4650;SDS011;2338;49.602;8.722;2023-07-20T01:10:01;6.40;;;2.57;;
4650;SDS011;2338;49.602;8.722;2023-07-20T01:12:52;5.43;;;1.90;;
4650;SDS011;2338;49.602;8.722;2023-07-20T01:15:38;4.83;;;2.07;;
4650;SDS011;2338;49.602;8.722;2023-07-20T01:18:24;4.53;;;1.90;;
4650;SDS011;2338;49.602;8.722;2023-07-20T01:21:18;6.83;;;2.30;;
4650;SDS011;2338;49.602;8.722;2023-07-20T01:24:30;6.00;;;2.70;;
4650;SDS011;2338;49.602;8.722;2023-07-20T01:31:16;6.80;;;2.70;;
4650;SDS011;2338;49.602;8.722;2023-07-20T01:34:06;12.80;;;2.37;;
4650;SDS011;2338;49.602;8.722;2023-07-20T01:36:53;4.47;;;2.30;;
4650;SDS011;2338;49.602;8.722;2023-07-20T01:39:40;5.73;;;2.20;;
4650;SDS011;2338;49.602;8.722;2023-07-20T01:42:26;5.03;;;2.80;;
4650;SDS011;2338;49.602;8.722;2023-07-20T01:45:11;3.77;;;2.20;;
4650;SDS011;2338;49.602;8.722;2023-07-20T01:47:58;5.43;;;2.10;;
4650;SDS011;2338;49.602;8.722;2023-07-20T01:50:44;5.40;;;2.73;;
4650;SDS011;2338;49.602;8.722;2023-07-20T01:53:30;8.33;;;2.40;;
4650;SDS011;2338;49.602;8.722;2023-07-20T01:56:15;4.50;;;2.17;;
4650;SDS011;2338;49.602;8.722;2023-07-20T01:59:01;4.53;;;2.50;;
4650;SDS011;2338;49.602;8.722;2023-07-20T02:01:46;5.97;;;2.50;;
4650;SDS011;2338;49.602;8.722;2023-07-20T02:04:33;4.57;;;2.70;;
4650;SDS011;2338;49.602;8.722;2023-07-20T02:07:19;4.73;;;2.80;;
4650;SDS011;2338;49.602;8.722;2023-07-20T02:10:05;5.47;;;2.43;;
4650;SDS011;2338;49.602;8.722;2023-07-20T02:12:51;4.83;;;2.60;;
4650;SDS011;2338;49.602;8.722;2023-07-20T02:15:37;9.40;;;3.53;;
4650;SDS011;2338;49.602;8.722;2023-07-20T02:18:22;7.80;;;2.83;;
4650;SDS011;2338;49.602;8.722;2023-07-20T02:21:09;6.07;;;2.43;;
4650;SDS011;2338;49.602;8.722;2023-07-20T02:23:55;4.10;;;2.70;;
4650;SDS011;2338;49.602;8.722;2023-07-20T02:26:40;7.43;;;2.53;;
4650;SDS011;2338;49.602;8.722;2023-07-20T02:29:26;4.33;;;2.40;;
4650;SDS011;2338;49.602;8.722;2023-07-20T02:32:11;4.60;;;2.40;;
4650;SDS011;2338;49.602;8.722;2023-07-20T02:34:57;4.77;;;2.70;;
4650;SDS011;2338;49.602;8.722;2023-07-20T02:37:43;5.43;;;3.27;;
4650;SDS011;2338;49.602;8.722;2023-07-20T02:40:29;8.67;;;2.80;;
4650;SDS011;2338;49.602;8.722;2023-07-20T02:43:14;7.50;;;3.00;;
4650;SDS011;2338;49.602;8.722;2023-07-20T02:46:00;5.00;;;2.40;;
4650;SDS011;2338;49.602;8.722;2023-07-20T02:48:46;10.53;;;3.47;;
4650;SDS011;2338;49.602;8.722;2023-07-20T02:51:31;5.37;;;2.30;;
4650;SDS011;2338;49.602;8.722;2023-07-20T02:54:18;3.20;;;2.50;;
4650;SDS011;2338;49.602;8.722;2023-07-20T02:57:03;4.27;;;2.50;;
4650;SDS011;2338;49.602;8.722;2023-07-20T02:59:49;4.20;;;2.63;;
4650;SDS011;2338;49.602;8.722;2023-07-20T03:02:35;8.60;;;2.37;;
4650;SDS011;2338;49.602;8.722;2023-07-20T03:05:21;10.63;;;2.90;;
4650;SDS011;2338;49.602;8.722;2023-07-20T03:08:09;5.53;;;2.47;;
4650;SDS011;2338;49.602;8.722;2023-07-20T03:10:56;4.10;;;2.53;;
4650;SDS011;2338;49.602;8.722;2023-07-20T03:13:41;4.83;;;2.63;;
4650;SDS011;2338;49.602;8.722;2023-07-20T03:16:26;4.07;;;2.40;;
4650;SDS011;2338;49.602;8.722;2023-07-20T03:19:12;9.20;;;2.43;;
4650;SDS011;2338;49.602;8.722;2023-07-20T03:21:58;3.30;;;2.10;;
4650;SDS011;2338;49.602;8.722;2023-07-20T03:24:43;3.43;;;2.57;;
4650;SDS011;2338;49.602;8.722;2023-07-20T03:27:30;7.43;;;2.97;;
4650;SDS011;2338;49.602;8.722;2023-07-20T03:30:15;5.80;;;2.73;;
4650;SDS011;2338;49.602;8.722;2023-07-20T03:33:01;4.50;;;2.60;;
4650;SDS011;2338;49.602;8.722;2023-07-20T03:35:46;6.57;;;3.37;;
4650;SDS011;2338;49.602;8.722;2023-07-20T03:38:32;4.10;;;2.30;;
4650;SDS011;2338;49.602;8.722;2023-07-20T03:41:17;12.50;;;3.23;;
4650;SDS011;2338;49.602;8.722;2023-07-20T03:44:05;5.10;;;3.13;;
4650;SDS011;2338;49.602;8.722;2023-07-20T03:46:50;6.13;;;2.87;;
4650;SDS011;2338;49.602;8.722;2023-07-20T03:49:36;7.30;;;3.03;;
4650;SDS011;2338;49.602;8.722;2023-07-20T03:52:22;4.37;;;2.50;;
4650;SDS011;2338;49.602;8.722;2023-07-20T03:55:08;7.57;;;3.20;;
4650;SDS011;2338;49.602;8.722;2023-07-20T03:57:53;4.97;;;2.60;;
4650;SDS011;2338;49.602;8.722;2023-07-20T04:00:42;4.57;;;2.57;;
4650;SDS011;2338;49.602;8.722;2023-07-20T04:03:29;4.50;;;2.53;;
4650;SDS011;2338;49.602;8.722;2023-07-20T04:06:15;5.30;;;3.13;;
4650;SDS011;2338;49.602;8.722;2023-07-20T04:09:01;8.00;;;3.47;;
4650;SDS011;2338;49.602;8.722;2023-07-20T04:11:48;6.03;;;2.73;;
4650;SDS011;2338;49.602;8.722;2023-07-20T04:14:33;5.10;;;2.93;;
4650;SDS011;2338;49.602;8.722;2023-07-20T04:17:21;6.00;;;3.87;;
4650;SDS011;2338;49.602;8.722;2023-07-20T04:20:06;5.83;;;3.10;;
4650;SDS011;2338;49.602;8.722;2023-07-20T04:22:52;5.77;;;2.67;;
4650;SDS011;2338;49.602;8.722;2023-07-20T04:25:39;8.80;;;3.43;;
4650;SDS011;2338;49.602;8.722;2023-07-20T04:28:24;9.50;;;4.30;;
4650;SDS011;2338;49.602;8.722;2023-07-20T04:31:10;6.70;;;3.00;;
4650;SDS011;2338;49.602;8.722;2023-07-20T04:33:58;8.37;;;3.23;;
4650;SDS011;2338;49.602;8.722;2023-07-20T04:36:43;10.60;;;3.20;;
4650;SDS011;2338;49.602;8.722;2023-07-20T04:39:29;7.57;;;2.90;;
4650;SDS011;2338;49.602;8.722;2023-07-20T04:42:14;6.10;;;2.87;;
4650;SDS011;2338;49.602;8.722;2023-07-20T04:45:00;4.43;;;2.57;;
4650;SDS011;2338;49.602;8.722;2023-07-20T04:47:45;5.27;;;3.00;;
4650;SDS011;2338;49.602;8.722;2023-07-20T04:50:32;4.60;;;2.53;;
4650;SDS011;2338;49.602;8.722;2023-07-20T04:53:17;9.10;;;3.20;;
4650;SDS011;2338;49.602;8.722;2023-07-20T04:56:03;4.57;;;2.90;;
4650;SDS011;2338;49.602;8.722;2023-07-20T04:58:48;4.30;;;3.07;;
4650;SDS011;2338;49.602;8.722;2023-07-20T05:01:34;8.70;;;2.80;;
4650;SDS011;2338;49.602;8.722;2023-07-20T05:04:20;4.57;;;2.40;;
4650;SDS011;2338;49.602;8.722;2023-07-20T05:07:07;4.60;;;2.70;;
4650;SDS011;2338;49.602;8.722;2023-07-20T05:09:52;4.00;;;2.43;;
4650;SDS011;2338;49.602;8.722;2023-07-20T05:12:37;7.47;;;3.00;;
4650;SDS011;2338;49.602;8.722;2023-07-20T05:15:23;4.70;;;2.27;;
4650;SDS011;2338;49.602;8.722;2023-07-20T05:18:09;7.43;;;2.87;;
4650;SDS011;2338;49.602;8.722;2023-07-20T05:20:54;5.83;;;2.80;;
4650;SDS011;2338;49.602;8.722;2023-07-20T05:23:42;4.07;;;2.40;;
4650;SDS011;2338;49.602;8.722;2023-07-20T05:26:28;11.20;;;3.50;;
4650;SDS011;2338;49.602;8.722;2023-07-20T05:29:14;4.93;;;2.60;;
4650;SDS011;2338;49.602;8.722;2023-07-20T05:31:59;4.23;;;2.70;;
4650;SDS011;2338;49.602;8.722;2023-07-20T05:34:45;5.37;;;3.10;;
4650;SDS011;2338;49.602;8.722;2023-07-20T05:37:30;11.77;;;3.10;;
4650;SDS011;2338;49.602;8.722;2023-07-20T05:40:17;8.50;;;2.73;;
4650;SDS011;2338;49.602;8.722;2023-07-20T05:43:04;4.63;;;2.70;;
4650;SDS011;2338;49.602;8.722;2023-07-20T05:45:50;5.50;;;2.80;;
4650;SDS011;2338;49.602;8.722;2023-07-20T05:48:35;7.73;;;2.87;;
4650;SDS011;2338;49.602;8.722;2023-07-20T05:51:21;9.50;;;2.47;;
4650;SDS011;2338;49.602;8.722;2023-07-20T05:54:06;5.03;;;2.53;;
4650;SDS011;2338;49.602;8.722;2023-07-20T05:56:53;6.63;;;2.73;;
4650;SDS011;2338;49.602;8.722;2023-07-20T05:59:38;4.50;;;2.90;;
4650;SDS011;2338;49.602;8.722;2023-07-20T06:02:27;7.37;;;2.87;;
4650;SDS011;2338;49.602;8.722;2023-07-20T06:05:13;5.60;;;2.33;;
4650;SDS011;2338;49.602;8.722;2023-07-20T06:07:59;7.13;;;2.53;;
4650;SDS011;2338;49.602;8.722;2023-07-20T06:10:44;10.23;;;3.20;;
4650;SDS011;2338;49.602;8.722;2023-07-20T06:13:36;6.80;;;2.77;;
4650;SDS011;2338;49.602;8.722;2023-07-20T06:16:22;8.60;;;2.80;;
4650;SDS011;2338;49.602;8.722;2023-07-20T06:19:07;8.67;;;2.90;;
4650;SDS011;2338;49.602;8.722;2023-07-20T06:21:54;5.87;;;3.23;;
4650;SDS011;2338;49.602;8.722;2023-07-20T06:24:40;5.60;;;3.10;;
4650;SDS011;2338;49.602;8.722;2023-07-20T06:27:26;7.50;;;2.90;;
4650;SDS011;2338;49.602;8.722;2023-07-20T06:30:13;5.53;;;2.90;;
4650;SDS011;2338;49.602;8.722;2023-07-20T06:32:58;6.80;;;3.00;;
4650;SDS011;2338;49.602;8.722;2023-07-20T06:35:43;4.40;;;2.70;;
4650;SDS011;2338;49.602;8.722;2023-07-20T06:38:29;6.97;;;3.33;;
4650;SDS011;2338;49.602;8.722;2023-07-20T06:41:14;15.43;;;3.10;;
4650;SDS011;2338;49.602;8.722;2023-07-20T06:44:00;4.90;;;3.07;;
4650;SDS011;2338;49.602;8.722;2023-07-20T06:46:47;5.70;;;2.80;;
4650;SDS011;2338;49.602;8.722;2023-07-20T06:49:32;9.60;;;3.40;;
4650;SDS011;2338;49.602;8.722;2023-07-20T06:52:18;6.37;;;3.33;;
4650;SDS011;2338;49.602;8.722;2023-07-20T06:55:04;8.47;;;3.27;;
4650;SDS011;2338;49.602;8.722;2023-07-20T06:57:50;4.60;;;3.50;;
4650;SDS011;2338;49.602;8.722;2023-07-20T07:00:36;6.80;;;3.27;;
4650;SDS011;2338;49.602;8.722;2023-07-20T07:03:23;5.50;;;2.97;;
4650;SDS011;2338;49.602;8.722;2023-07-20T07:06:09;5.93;;;2.77;;
4650;SDS011;2338;49.602;8.722;2023-07-20T07:08:54;8.37;;;3.50;;
4650;SDS011;2338;49.602;8.722;2023-07-20T07:11:39;5.50;;;2.83;;
4650;SDS011;2338;49.602;8.722;2023-07-20T07:14:25;9.43;;;3.33;;
4650;SDS011;2338;49.602;8.722;2023-07-20T07:17:10;7.80;;;3.10;;
4650;SDS011;2338;49.602;8.722;2023-07-20T07:19:57;8.53;;;3.27;;
4650;SDS011;2338;49.602;8.722;2023-07-20T07:22:43;5.80;;;2.53;;
4650;SDS011;2338;49.602;8.722;2023-07-20T07:25:28;9.17;;;3.37;;
4650;SDS011;2338;49.602;8.722;2023-07-20T07:28:15;7.77;;;3.00;;
4650;SDS011;2338;49.602;8.722;2023-07-20T07:31:02;8.23;;;2.90;;
4650;SDS011;2338;49.602;8.722;2023-07-20T07:33:49;4.80;;;3.30;;
4650;SDS011;2338;49.602;8.722;2023-07-20T07:36:36;9.10;;;3.20;;
4650;SDS011;2338;49.602;8.722;2023-07-20T07:39:21;6.43;;;3.10;;
4650;SDS011;2338;49.602;8.722;2023-07-20T07:42:08;5.20;;;3.40;;
4650;SDS011;2338;49.602;8.722;2023-07-20T07:44:53;8.67;;;3.20;;
4650;SDS011;2338;49.602;8.722;2023-07-20T07:47:39;6.80;;;2.53;;
4650;SDS011;2338;49.602;8.722;2023-07-20T07:50:24;8.77;;;2.83;;
4650;SDS011;2338;49.602;8.722;2023-07-20T07:53:12;4.83;;;2.43;;
4650;SDS011;2338;49.602;8.722;2023-07-20T07:55:58;4.03;;;2.70;;
4650;SDS011;2338;49.602;8.722;2023-07-20T07:58:44;4.50;;;2.93;;
4650;SDS011;2338;49.602;8.722;2023-07-20T08:01:29;7.63;;;3.10;;
4650;SDS011;2338;49.602;8.722;2023-07-20T08:04:15;8.27;;;3.47;;
4650;SDS011;2338;49.602;8.722;2023-07-20T08:07:02;9.70;;;3.57;;
4650;SDS011;2338;49.602;8.722;2023-07-20T08:09:49;8.50;;;3.60;;
4650;SDS011;2338;49.602;8.722;2023-07-20T08:12:35;7.87;;;3.00;;
4650;SDS011;2338;49.602;8.722;2023-07-20T08:15:20;4.80;;;2.67;;
4650;SDS011;2338;49.602;8.722;2023-07-20T08:18:06;7.70;;;2.83;;
4650;SDS011;2338;49.602;8.722;2023-07-20T08:20:52;6.40;;;2.90;;
4650;SDS011;2338;49.602;8.722;2023-07-20T08:23:37;6.30;;;2.23;;
4650;SDS011;2338;49.602;8.722;2023-07-20T08:26:24;6.97;;;2.80;;
4650;SDS011;2338;49.602;8.722;2023-07-20T08:29:10;5.60;;;2.70;;
4650;SDS011;2338;49.602;8.722;2023-07-20T08:31:55;5.20;;;2.47;;
4650;SDS011;2338;49.602;8.722;2023-07-20T08:34:41;7.70;;;2.83;;
4650;SDS011;2338;49.602;8.722;2023-07-20T08:37:27;4.60;;;2.23;;
4650;SDS011;2338;49.602;8.722;2023-07-20T08:40:13;4.53;;;2.20;;
4650;SDS011;2338;49.602;8.722;2023-07-20T08:43:00;8.23;;;2.00;;
4650;SDS011;2338;49.602;8.722;2023-07-20T08:45:45;5.70;;;2.60;;
4650;SDS011;2338;49.602;8.722;2023-07-20T08:48:33;8.03;;;2.40;;
4650;SDS011;2338;49.602;8.722;2023-07-20T08:51:19;3.23;;;1.87;;
4650;SDS011;2338;49.602;8.722;2023-07-20T08:54:05;5.30;;;2.23;;
4650;SDS011;2338;49.602;8.722;2023-07-20T08:56:54;4.40;;;2.20;;
4650;SDS011;2338;49.602;8.722;2023-07-20T08:59:43;6.27;;;2.67;;
4650;SDS011;2338;49.602;8.722;2023-07-20T09:02:29;7.40;;;2.80;;
4650;SDS011;2338;49.602;8.722;2023-07-20T09:05:16;3.40;;;2.00;;
4650;SDS011;2338;49.602;8.722;2023-07-20T09:08:02;4.53;;;2.10;;
4650;SDS011;2338;49.602;8.722;2023-07-20T09:10:48;5.03;;;1.90;;
4650;SDS011;2338;49.602;8.722;2023-07-20T09:13:34;3.97;;;2.10;;
4650;SDS011;2338;49.602;8.722;2023-07-20T09:16:21;4.53;;;2.40;;
4650;SDS011;2338;49.602;8.722;2023-07-20T09:19:07;3.60;;;2.20;;
4650;SDS011;2338;49.602;8.722;2023-07-20T09:21:52;11.77;;;2.10;;
4650;SDS011;2338;49.602;8.722;2023-07-20T09:24:38;3.57;;;2.07;;
4650;SDS011;2338;49.602;8.722;2023-07-20T09:27:29;3.63;;;1.63;;
4650;SDS011;2338;49.602;8.722;2023-07-20T09:30:21;2.87;;;1.50;;
4650;SDS011;2338;49.602;8.722;2023-07-20T09:33:19;4.10;;;2.00;;
4650;SDS011;2338;49.602;8.722;2023-07-20T09:36:06;5.57;;;2.03;;
4650;SDS011;2338;49.602;8.722;2023-07-20T09:38:55;3.63;;;2.20;;
4650;SDS011;2338;49.602;8.722;2023-07-20T09:41:41;3.53;;;1.60;;
4650;SDS011;2338;49.602;8.722;2023-07-20T09:44:27;6.67;;;2.30;;
4650;SDS011;2338;49.602;8.722;2023-07-20T09:47:12;3.93;;;1.67;;
4650;SDS011;2338;49.602;8.722;2023-07-20T09:50:07;5.00;;;1.73;;
4650;SDS011;2338;49.602;8.722;2023-07-20T09:52:56;4.23;;;2.20;;
4650;SDS011;2338;49.602;8.722;2023-07-20T09:55:41;4.03;;;1.90;;
4650;SDS011;2338;49.602;8.722;2023-07-20T09:58:28;5.60;;;2.27;;
4650;SDS011;2338;49.602;8.722;2023-07-20T10:01:17;6.40;;;2.57;;
4650;SDS011;2338;49.602;8.722;2023-07-20T10:04:05;6.30;;;1.70;;
4650;SDS011;2338;49.602;8.722;2023-07-20T10:06:55;5.80;;;2.20;;
4650;SDS011;2338;49.602;8.722;2023-07-20T10:09:43;6.87;;;2.13;;
4650;SDS011;2338;49.602;8.722;2023-07-20T10:12:29;4.80;;;2.00;;
4650;SDS011;2338;49.602;8.722;2023-07-20T10:15:18;4.30;;;1.90;;
4650;SDS011;2338;49.602;8.722;2023-07-20T10:18:07;4.30;;;2.07;;
4650;SDS011;2338;49.602;8.722;2023-07-20T10:20:58;2.77;;;1.87;;
4650;SDS011;2338;49.602;8.722;2023-07-20T10:23:46;7.77;;;1.97;;
4650;SDS011;2338;49.602;8.722;2023-07-20T10:26:32;4.37;;;2.20;;
4650;SDS011;2338;49.602;8.722;2023-07-20T10:29:18;3.50;;;2.03;;
4650;SDS011;2338;49.602;8.722;2023-07-20T10:32:04;3.60;;;2.23;;
4650;SDS011;2338;49.602;8.722;2023-07-20T10:34:51;3.10;;;1.90;;
4650;SDS011;2338;49.602;8.722;2023-07-20T10:37:46;7.00;;;2.33;;
4650;SDS011;2338;49.602;8.722;2023-07-20T10:40:38;6.60;;;2.00;;
4650;SDS011;2338;49.602;8.722;2023-07-20T10:43:24;8.00;;;2.47;;
4650;SDS011;2338;49.602;8.722;2023-07-20T10:46:10;3.00;;;1.80;;
4650;SDS011;2338;49.602;8.722;2023-07-20T10:49:00;3.50;;;1.97;;
4650;SDS011;2338;49.602;8.722;2023-07-20T10:51:47;4.00;;;2.00;;
4650;SDS011;2338;49.602;8.722;2023-07-20T10:54:34;8.97;;;2.00;;
4650;SDS011;2338;49.602;8.722;2023-07-20T10:57:32;7.10;;;2.50;;
4650;SDS011;2338;49.602;8.722;2023-07-20T11:00:18;3.93;;;2.00;;
4650;SDS011;2338;49.602;8.722;2023-07-20T11:03:06;3.90;;;1.80;;
4650;SDS011;2338;49.602;8.722;2023-07-20T11:05:52;2.47;;;1.53;;
4650;SDS011;2338;49.602;8.722;2023-07-20T11:08:38;13.37;;;2.10;;
4650;SDS011;2338;49.602;8.722;2023-07-20T11:11:26;4.03;;;1.60;;
4650;SDS011;2338;49.602;8.722;2023-07-20T11:14:21;2.60;;;1.70;;
4650;SDS011;2338;49.602;8.722;2023-07-20T11:17:11;4.97;;;2.27;;
4650;SDS011;2338;49.602;8.722;2023-07-20T11:19:57;4.77;;;1.90;;
4650;SDS011;2338;49.602;8.722;2023-07-20T11:22:44;4.87;;;1.77;;
4650;SDS011;2338;49.602;8.722;2023-07-20T11:25:35;5.03;;;2.23;;
4650;SDS011;2338;49.602;8.722;2023-07-20T11:28:22;3.90;;;1.70;;
4650;SDS011;2338;49.602;8.722;2023-07-20T11:31:09;2.87;;;1.70;;
4650;SDS011;2338;49.602;8.722;2023-07-20T11:33:54;3.23;;;1.80;;
4650;SDS011;2338;49.602;8.722;2023-07-20T11:36:41;4.07;;;1.83;;
4650;SDS011;2338;49.602;8.722;2023-07-20T11:39:27;4.47;;;2.00;;
4650;SDS011;2338;49.602;8.722;2023-07-20T11:42:14;3.70;;;2.10;;
4650;SDS011;2338;49.602;8.722;2023-07-20T11:44:59;6.40;;;2.00;;
4650;SDS011;2338;49.602;8.722;2023-07-20T11:47:50;3.63;;;2.03;;
4650;SDS011;2338;49.602;8.722;2023-07-20T11:50:38;5.43;;;1.70;;
4650;SDS011;2338;49.602;8.722;2023-07-20T11:53:24;3.83;;;1.97;;
4650;SDS011;2338;49.602;8.722;2023-07-20T11:56:10;11.07;;;2.47;;
4650;SDS011;2338;49.602;8.722;2023-07-20T11:58:55;4.50;;;1.90;;
4650;SDS011;2338;49.602;8.722;2023-07-20T12:01:43;3.73;;;1.70;;
4650;SDS011;2338;49.602;8.722;2023-07-20T12:04:32;4.67;;;1.73;;
4650;SDS011;2338;49.602;8.722;2023-07-20T12:07:18;5.70;;;2.03;;
4650;SDS011;2338;49.602;8.722;2023-07-20T12:10:04;6.17;;;2.37;;
4650;SDS011;2338;49.602;8.722;2023-07-20T12:12:51;4.53;;;1.90;;
4650;SDS011;2338;49.602;8.722;2023-07-20T12:15:37;10.30;;;2.30;;
4650;SDS011;2338;49.602;8.722;2023-07-20T12:18:22;3.57;;;1.80;;
4650;SDS011;2338;49.602;8.722;2023-07-20T12:21:10;6.60;;;1.97;;
4650;SDS011;2338;49.602;8.722;2023-07-20T12:23:56;2.57;;;1.23;;
4650;SDS011;2338;49.602;8.722;2023-07-20T12:26:42;4.27;;;1.43;;
4650;SDS011;2338;49.602;8.722;2023-07-20T12:29:27;2.53;;;1.47;;
4650;SDS011;2338;49.602;8.722;2023-07-20T12:32:13;3.97;;;1.83;;
4650;SDS011;2338;49.602;8.722;2023-07-20T12:34:58;2.30;;;1.10;;
4650;SDS011;2338;49.602;8.722;2023-07-20T12:37:45;2.53;;;1.30;;
4650;SDS011;2338;49.602;8.722;2023-07-20T12:40:33;4.33;;;1.50;;
4650;SDS011;2338;49.602;8.722;2023-07-20T12:43:20;4.60;;;1.90;;
4650;SDS011;2338;49.602;8.722;2023-07-20T12:46:06;3.70;;;1.63;;
4650;SDS011;2338;49.602;8.722;2023-07-20T12:48:51;2.40;;;1.30;;
4650;SDS011;2338;49.602;8.722;2023-07-20T12:51:37;4.10;;;1.80;;
4650;SDS011;2338;49.602;8.722;2023-07-20T12:54:24;4.40;;;1.90;;
4650;SDS011;2338;49.602;8.722;2023-07-20T12:57:09;3.27;;;1.70;;
4650;SDS011;2338;49.602;8.722;2023-07-20T12:59:55;3.80;;;1.60;;
4650;SDS011;2338;49.602;8.722;2023-07-20T13:02:40;4.13;;;1.47;;
4650;SDS011;2338;49.602;8.722;2023-07-20T13:05:26;2.70;;;1.60;;
4650;SDS011;2338;49.602;8.722;2023-07-20T13:08:12;7.33;;;1.70;;
4650;SDS011;2338;49.602;8.722;2023-07-20T13:10:59;4.90;;;1.63;;
4650;SDS011;2338;49.602;8.722;2023-07-20T13:13:45;4.57;;;2.23;;
4650;SDS011;2338;49.602;8.722;2023-07-20T13:16:30;3.07;;;1.43;;
4650;SDS011;2338;49.602;8.722;2023-07-20T13:19:16;4.23;;;1.80;;
4650;SDS011;2338;49.602;8.722;2023-07-20T13:22:01;5.00;;;1.80;;
4650;SDS011;2338;49.602;8.722;2023-07-20T13:24:47;4.83;;;1.30;;
4650;SDS011;2338;49.602;8.722;2023-07-20T13:27:35;2.53;;;1.33;;
4650;SDS011;2338;49.602;8.722;2023-07-20T13:30:21;4.03;;;2.00;;
4650;SDS011;2338;49.602;8.722;2023-07-20T13:33:07;3.90;;;2.27;;
4650;SDS011;2338;49.602;8.722;2023-07-20T13:35:52;5.07;;;1.77;;
4650;SDS011;2338;49.602;8.722;2023-07-20T13:38:38;4.63;;;1.30;;
4650;SDS011;2338;49.602;8.722;2023-07-20T13:41:23;3.53;;;1.80;;
4650;SDS011;2338;49.602;8.722;2023-07-20T13:44:10;4.13;;;1.80;;
4650;SDS011;2338;49.602;8.722;2023-07-20T13:46:55;8.60;;;1.53;;
4650;SDS011;2338;49.602;8.722;2023-07-20T13:49:41;3.23;;;2.10;;
4650;SDS011;2338;49.602;8.722;2023-07-20T13:52:27;6.20;;;1.67;;
4650;SDS011;2338;49.602;8.722;2023-07-20T13:55:12;3.10;;;1.50;;
4650;SDS011;2338;49.602;8.722;2023-07-20T13:57:58;3.90;;;1.83;;
4650;SDS011;2338;49.602;8.722;2023-07-20T14:00:45;5.80;;;1.50;;
4650;SDS011;2338;49.602;8.722;2023-07-20T14:03:30;2.90;;;1.50;;
4650;SDS011;2338;49.602;8.722;2023-07-20T14:06:16;3.30;;;2.03;;
4650;SDS011;2338;49.602;8.722;2023-07-20T14:09:02;4.47;;;1.70;;
4650;SDS011;2338;49.602;8.722;2023-07-20T14:11:48;8.43;;;1.90;;
4650;SDS011;2338;49.602;8.722;2023-07-20T14:14:33;5.27;;;1.80;;
4650;SDS011;2338;49.602;8.722;2023-07-20T14:17:20;4.23;;;1.70;;
4650;SDS011;2338;49.602;8.722;2023-07-20T14:20:06;6.50;;;2.10;;
4650;SDS011;2338;49.602;8.722;2023-07-20T14:22:52;4.57;;;2.00;;
4650;SDS011;2338;49.602;8.722;2023-07-20T14:25:37;4.23;;;1.60;;
4650;SDS011;2338;49.602;8.722;2023-07-20T14:28:24;5.03;;;2.10;;
4650;SDS011;2338;49.602;8.722;2023-07-20T14:31:09;3.90;;;1.47;;
4650;SDS011;2338;49.602;8.722;2023-07-20T14:33:56;5.37;;;2.10;;
4650;SDS011;2338;49.602;8.722;2023-07-20T14:36:42;2.40;;;1.50;;
4650;SDS011;2338;49.602;8.722;2023-07-20T14:39:27;2.40;;;1.30;;
4650;SDS011;2338;49.602;8.722;2023-07-20T14:42:13;5.97;;;2.30;;
4650;SDS011;2338;49.602;8.722;2023-07-20T14:44:58;3.40;;;1.60;;
4650;SDS011;2338;49.602;8.722;2023-07-20T14:47:44;4.10;;;1.77;;
4650;SDS011;2338;49.602;8.722;2023-07-20T14:50:34;10.47;;;2.30;;
4650;SDS011;2338;49.602;8.722;2023-07-20T14:53:19;6.60;;;1.80;;
4650;SDS011;2338;49.602;8.722;2023-07-20T14:56:05;4.20;;;1.67;;
4650;SDS011;2338;49.602;8.722;2023-07-20T14:58:51;5.10;;;1.67;;
4650;SDS011;2338;49.602;8.722;2023-07-20T15:01:36;4.10;;;1.67;;
4650;SDS011;2338;49.602;8.722;2023-07-20T15:04:22;3.60;;;1.53;;
4650;SDS011;2338;49.602;8.722;2023-07-20T15:07:09;3.13;;;1.80;;
4650;SDS011;2338;49.602;8.722;2023-07-20T15:09:54;4.07;;;1.57;;
4650;SDS011;2338;49.602;8.722;2023-07-20T15:12:40;4.30;;;2.07;;
4650;SDS011;2338;49.602;8.722;2023-07-20T15:15:26;3.00;;;1.70;;
4650;SDS011;2338;49.602;8.722;2023-07-20T15:18:12;5.63;;;1.60;;
4650;SDS011;2338;49.602;8.722;2023-07-20T15:20:57;5.07;;;2.30;;
4650;SDS011;2338;49.602;8.722;2023-07-20T15:23:44;3.90;;;1.87;;
4650;SDS011;2338;49.602;8.722;2023-07-20T15:26:29;3.13;;;1.60;;
4650;SDS011;2338;49.602;8.722;2023-07-20T15:29:16;3.57;;;1.67;;
4650;SDS011;2338;49.602;8.722;2023-07-20T15:32:02;4.83;;;1.83;;
4650;SDS011;2338;49.602;8.722;2023-07-20T15:34:48;4.17;;;1.53;;
4650;SDS011;2338;49.602;8.722;2023-07-20T15:37:34;9.73;;;2.23;;
4650;SDS011;2338;49.602;8.722;2023-07-20T15:40:21;2.63;;;1.60;;
4650;SDS011;2338;49.602;8.722;2023-07-20T15:43:06;8.63;;;3.10;;
4650;SDS011;2338;49.602;8.722;2023-07-20T15:45:58;333.93;;;255.90;;
4650;SDS011;2338;49.602;8.722;2023-07-20T15:48:46;244.73;;;113.73;;
4650;SDS011;2338;49.602;8.722;2023-07-20T15:51:31;189.30;;;143.17;;
4650;SDS011;2338;49.602;8.722;2023-07-20T15:54:17;208.37;;;131.63;;
4650;SDS011;2338;49.602;8.722;2023-07-20T15:57:04;27.80;;;16.37;;
4650;SDS011;2338;49.602;8.722;2023-07-20T15:59:51;21.73;;;11.90;;
4650;SDS011;2338;49.602;8.722;2023-07-20T16:02:37;12.87;;;6.93;;
4650;SDS011;2338;49.602;8.722;2023-07-20T16:05:23;21.57;;;12.47;;
4650;SDS011;2338;49.602;8.722;2023-07-20T16:08:08;14.80;;;6.07;;
4650;SDS011;2338;49.602;8.722;2023-07-20T16:10:54;23.17;;;13.40;;
4650;SDS011;2338;49.602;8.722;2023-07-20T16:13:42;8.53;;;4.53;;
4650;SDS011;2338;49.602;8.722;2023-07-20T16:16:28;14.30;;;4.73;;
4650;SDS011;2338;49.602;8.722;2023-07-20T16:19:14;17.83;;;8.00;;
4650;SDS011;2338;49.602;8.722;2023-07-20T16:21:59;9.00;;;4.63;;
4650;SDS011;2338;49.602;8.722;2023-07-20T16:24:45;8.33;;;3.47;;
4650;SDS011;2338;49.602;8.722;2023-07-20T16:27:30;10.87;;;4.60;;
4650;SDS011;2338;49.602;8.722;2023-07-20T16:30:17;4.43;;;2.20;;
4650;SDS011;2338;49.602;8.722;2023-07-20T16:33:03;5.87;;;2.30;;
4650;SDS011;2338;49.602;8.722;2023-07-20T16:35:49;6.20;;;3.33;;
4650;SDS011;2338;49.602;8.722;2023-07-20T16:38:35;7.53;;;3.73;;
4650;SDS011;2338;49.602;8.722;2023-07-20T16:41:20;6.93;;;3.13;;
4650;SDS011;2338;49.602;8.722;2023-07-20T16:44:06;9.67;;;2.87;;
4650;SDS011;2338;49.602;8.722;2023-07-20T16:46:53;4.30;;;2.13;;
4650;SDS011;2338;49.602;8.722;2023-07-20T16:49:38;7.67;;;2.13;;
4650;SDS011;2338;49.602;8.722;2023-07-20T16:52:24;6.60;;;1.97;;
4650;SDS011;2338;49.602;8.722;2023-07-20T16:55:10;5.57;;;2.50;;
4650;SDS011;2338;49.602;8.722;2023-07-20T16:57:57;6.87;;;2.10;;
4650;SDS011;2338;49.602;8.722;2023-07-20T17:00:45;3.40;;;2.10;;
4650;SDS011;2338;49.602;8.722;2023-07-20T17:03:32;10.10;;;2.10;;
4650;SDS011;2338;49.602;8.722;2023-07-20T17:06:19;4.27;;;2.23;;
4650;SDS011;2338;49.602;8.722;2023-07-20T17:09:05;5.50;;;2.20;;
4650;SDS011;2338;49.602;8.722;2023-07-20T17:11:50;3.63;;;2.00;;
4650;SDS011;2338;49.602;8.722;2023-07-20T17:14:36;4.30;;;2.30;;
4650;SDS011;2338;49.602;8.722;2023-07-20T17:17:21;3.63;;;2.10;;